Time;durP1;ratioP1;P1;durP2;ratioP2;P2;SDS_P1;SDS_P2;PMS_P1;PMS_P2;Temp;Humidity;BMP_temperature;BMP_pressure;BME280_temperature;BME280_humidity;BME280_pressure;Samples;Min_cycle;Max_cycle;Signal;HPM_P1;HPM_P2
2019/04/23 00:00:43;;;;;;;8.6;3.9;;;;;;;14.38;46.12891;945.4394;;;;
2019/04/23 00:02:48;;;;;;;4.9;3.8;;;;;;;14.32;46.60938;945.5006;;;;
2019/04/23 00:05:15;;;;;;;7.3;4.1;;;;;;;14.36;46.69629;945.4596;;;;
2019/04/23 00:07:40;;;;;;;6.8;3.8;;;;;;;14.31;46.69043;945.3967;;;;
2019/04/23 00:10:07;;;;;;;11.7;4.2;;;;;;;14.16;47.48633;945.3755;;;;
2019/04/23 00:12:32;;;;;;;14.2;4.7;;;;;;;14.22;47.17871;945.3467;;;;
2019/04/23 00:14:58;;;;;;;6.6;4.2;;;;;;;14.31;46.69043;945.313;;;;
2019/04/23 00:17:23;;;;;;;9.4;4.2;;;;;;;14.22;46.94727;945.3024;;;;
2019/04/23 00:19:48;;;;;;;10;4.3;;;;;;;14.12;47.19238;945.2584;;;;
2019/04/23 00:25:51;;;;;;;7.9;4.4;;;;;;;14.16;47.3457;945.2364;;;;
2019/04/23 00:28:14;;;;;;;11.3;4.3;;;;;;;14.17;47.52246;945.191;;;;
2019/04/23 00:30:41;;;;;;;8.6;4.1;;;;;;;14.18;47.38379;945.2205;;;;
2019/04/23 00:33:06;;;;;;;6.6;3.8;;;;;;;14.14;47.99512;945.2382;;;;
2019/04/23 00:35:32;;;;;;;8.6;3.9;;;;;;;14.13;48.19141;945.1082;;;;
2019/04/23 00:37:57;;;;;;;7.1;4.2;;;;;;;14.05;47.82227;945.04;;;;
2019/04/23 00:40:22;;;;;;;8.3;4.5;;;;;;;14;48.03711;945.0991;;;;
2019/04/23 00:42:48;;;;;;;9.1;3.8;;;;;;;14.02;48.31836;945.0126;;;;
2019/04/23 00:45:13;;;;;;;7;4.3;;;;;;;14.04;47.95996;945.0502;;;;
2019/04/23 00:47:38;;;;;;;8.1;4.1;;;;;;;14.01;48.30566;945.0489;;;;
2019/04/23 00:50:03;;;;;;;8.4;4.2;;;;;;;13.91;48.24707;944.9442;;;;
2019/04/23 00:52:31;;;;;;;7;4.2;;;;;;;13.86;48.65918;944.9592;;;;
2019/04/23 00:54:57;;;;;;;8.7;4.3;;;;;;;13.89;48.22266;944.7981;;;;
2019/04/23 00:57:22;;;;;;;7.2;4;;;;;;;13.76;48.92676;944.8141;;;;
2019/04/23 00:59:50;;;;;;;8.4;4.1;;;;;;;13.74;48.80859;944.8867;;;;
2019/04/23 01:02:15;;;;;;;8.3;4.4;;;;;;;13.68;49.18457;944.8541;;;;
2019/04/23 01:04:40;;;;;;;10.7;4.5;;;;;;;13.5;49.73242;944.8898;;;;
2019/04/23 01:07:05;;;;;;;7.4;4.4;;;;;;;13.55;49.7959;944.9579;;;;
2019/04/23 01:09:36;;;;;;;6.6;4.1;;;;;;;13.58;49.78711;944.928;;;;
2019/04/23 01:11:57;;;;;;;7.4;4.3;;;;;;;13.54;49.71289;944.8942;;;;
2019/04/23 01:14:22;;;;;;;9;4.4;;;;;;;13.44;50.46582;944.8451;;;;
2019/04/23 01:16:47;;;;;;;6.4;4.3;;;;;;;13.43;50.63867;944.8723;;;;
2019/04/23 01:19:30;;;;;;;6.9;4.1;;;;;;;13.47;49.8457;944.8624;;;;
2019/04/23 01:21:40;;;;;;;7.6;4.2;;;;;;;13.48;50.2041;944.8705;;;;
2019/04/23 01:24:11;;;;;;;12.9;4.7;;;;;;;13.51;50.52051;944.8889;;;;
2019/04/23 01:26:59;;;;;;;7.4;4.3;;;;;;;13.37;50.33105;944.7969;;;;
2019/04/23 01:28:53;;;;;;;8.3;4.8;;;;;;;13.29;51.33984;944.7723;;;;
2019/04/23 01:31:18;;;;;;;7.5;4.3;;;;;;;13.3;50.66992;944.8619;;;;
2019/04/23 01:33:43;;;;;;;6.8;4.2;;;;;;;13.29;50.34375;944.7461;;;;
2019/04/23 01:36:08;;;;;;;10.1;4.3;;;;;;;13.29;50.73828;944.7371;;;;
2019/04/23 01:38:33;;;;;;;6.6;4.3;;;;;;;13.34;50.83691;944.7352;;;;
2019/04/23 01:40:59;;;;;;;9.3;4.8;;;;;;;13.23;50.87012;944.6998;;;;
2019/04/23 01:43:24;;;;;;;6.4;4.4;;;;;;;13.24;50.94238;944.7291;;;;
2019/04/23 01:45:49;;;;;;;8.4;4.6;;;;;;;13.14;51.25391;944.699;;;;
2019/04/23 01:48:14;;;;;;;7.5;4.5;;;;;;;13.16;51.2207;944.6306;;;;
2019/04/23 01:50:40;;;;;;;6.9;4.3;;;;;;;13.11;51.37793;944.6313;;;;
2019/04/23 01:53:06;;;;;;;5.9;4.3;;;;;;;13.03;51.50684;944.5761;;;;
2019/04/23 01:55:31;;;;;;;8;4.6;;;;;;;12.89;51.86035;944.593;;;;
2019/04/23 01:57:56;;;;;;;8.3;4.6;;;;;;;12.9;52.29004;944.6403;;;;
2019/04/23 02:00:24;;;;;;;8.9;4.6;;;;;;;12.94;51.75098;944.6175;;;;
2019/04/23 02:02:49;;;;;;;7.8;4.5;;;;;;;12.87;52.58691;944.6481;;;;
2019/04/23 02:05:14;;;;;;;10.4;4.8;;;;;;;12.85;52.33008;944.5934;;;;
2019/04/23 02:07:39;;;;;;;8.9;4.6;;;;;;;12.92;52.22266;944.6242;;;;
2019/04/23 02:10:05;;;;;;;7.5;4.5;;;;;;;12.95;52.37695;944.494;;;;
2019/04/23 02:12:30;;;;;;;5.7;4.3;;;;;;;12.92;52.84863;944.5108;;;;
2019/04/23 02:14:56;;;;;;;10.4;4.6;;;;;;;12.8;52.65918;944.5516;;;;
2019/04/23 02:17:21;;;;;;;8.3;4.5;;;;;;;12.76;53.39551;944.4819;;;;
2019/04/23 02:19:46;;;;;;;6.5;4.5;;;;;;;12.75;53.21973;944.4406;;;;
2019/04/23 02:22:50;;;;;;;9.2;4.6;;;;;;;12.79;52.90137;944.448;;;;
2019/04/23 02:24:48;;;;;;;6.8;4.6;;;;;;;12.65;53.26563;944.4131;;;;
2019/04/23 02:27:02;;;;;;;8.4;4.3;;;;;;;12.62;53.30859;944.39;;;;
2019/04/23 02:29:28;;;;;;;8.4;4.6;;;;;;;12.57;53.64844;944.4487;;;;
2019/04/23 02:31:54;;;;;;;8;4.6;;;;;;;12.61;53.35352;944.4219;;;;
2019/04/23 02:34:19;;;;;;;7.3;4.3;;;;;;;12.55;54.04004;944.3508;;;;
2019/04/23 02:36:47;;;;;;;6.7;4.3;;;;;;;12.55;53.52051;944.3326;;;;
2019/04/23 02:39:12;;;;;;;7.8;4.6;;;;;;;12.49;53.75488;944.2757;;;;
2019/04/23 02:41:37;;;;;;;6.6;4.7;;;;;;;12.44;53.99121;944.2589;;;;
2019/04/23 02:44:02;;;;;;;7;4.3;;;;;;;12.45;53.81934;944.2321;;;;
2019/04/23 02:46:29;;;;;;;7;4.4;;;;;;;12.49;53.92773;944.2053;;;;
2019/04/23 02:48:54;;;;;;;7.5;4.6;;;;;;;12.51;53.89648;944.2117;;;;
2019/04/23 02:51:19;;;;;;;8.4;4.7;;;;;;;12.49;54.22852;944.1007;;;;
2019/04/23 02:53:44;;;;;;;7.8;4.7;;;;;;;12.41;54.6123;944.1149;;;;
2019/04/23 02:56:11;;;;;;;9.5;4.8;;;;;;;12.39;54.62109;944.1439;;;;
2019/04/23 02:58:36;;;;;;;7.6;4.3;;;;;;;12.4;54.37988;944.0765;;;;
2019/04/23 03:01:01;;;;;;;7.5;4.7;;;;;;;12.37;54.37598;944.1024;;;;
2019/04/23 03:03:26;;;;;;;9.3;4.5;;;;;;;12.35;54.69727;944.1614;;;;
2019/04/23 03:05:51;;;;;;;8.3;4.6;;;;;;;12.38;54.5498;944.1144;;;;
2019/04/23 03:08:17;;;;;;;6.6;4.6;;;;;;;12.38;54.8291;944.0441;;;;
2019/04/23 03:10:42;;;;;;;7.4;4.8;;;;;;;12.29;54.9082;944.0812;;;;
2019/04/23 03:13:09;;;;;;;8.5;4.7;;;;;;;12.24;54.94922;944.0567;;;;
2019/04/23 03:15:50;;;;;;;7.8;4.5;;;;;;;12.18;55.29785;944.0339;;;;
2019/04/23 03:18:08;;;;;;;7;4.6;;;;;;;12.12;55.4541;943.9749;;;;
2019/04/23 03:20:32;;;;;;;6.9;4.3;;;;;;;12.07;56.15039;943.8987;;;;
2019/04/23 03:22:51;;;;;;;9.7;4.8;;;;;;;12.09;55.53027;943.8922;;;;
2019/04/23 03:25:26;;;;;;;7.7;4.8;;;;;;;11.99;56.10645;943.956;;;;
2019/04/23 03:27:39;;;;;;;9.1;4.9;;;;;;;11.98;56.18555;943.9439;;;;
2019/04/23 03:30:12;;;;;;;8;5;;;;;;;11.9;56.48633;943.8664;;;;
2019/04/23 03:32:29;;;;;;;8.1;4.9;;;;;;;11.92;56.68555;943.908;;;;
2019/04/23 03:34:55;;;;;;;6.6;4.6;;;;;;;11.93;56.68652;943.9633;;;;
2019/04/23 03:37:20;;;;;;;9.2;4.7;;;;;;;11.94;56.56152;943.9666;;;;
2019/04/23 03:39:45;;;;;;;10.2;4.7;;;;;;;11.8;57.0166;943.9263;;;;
2019/04/23 03:42:12;;;;;;;7.3;4.6;;;;;;;11.88;56.64551;943.9558;;;;
2019/04/23 03:44:37;;;;;;;8.6;4.6;;;;;;;11.89;56.79688;944.007;;;;
2019/04/23 03:47:02;;;;;;;9.7;4.9;;;;;;;11.87;56.98047;944.0258;;;;
2019/04/23 03:49:27;;;;;;;7;4.4;;;;;;;11.88;57.16504;944.0171;;;;
2019/04/23 03:51:53;;;;;;;8.4;5.1;;;;;;;11.88;56.7959;943.9689;;;;
2019/04/23 03:54:18;;;;;;;6.3;4.9;;;;;;;11.8;57.29395;943.9603;;;;
2019/04/23 03:56:43;;;;;;;8.4;4.9;;;;;;;11.7;57.63867;943.8808;;;;
2019/04/23 03:59:08;;;;;;;8.9;4.8;;;;;;;11.69;57.59082;943.9467;;;;
2019/04/23 04:02:39;;;;;;;6.5;4.9;;;;;;;11.66;58.16309;943.9594;;;;
2019/04/23 04:05:04;;;;;;;7.1;4.8;;;;;;;11.7;57.57031;943.9239;;;;
2019/04/23 04:07:31;;;;;;;8.3;5;;;;;;;11.74;57.18066;943.8892;;;;
2019/04/23 04:09:56;;;;;;;6.7;4.8;;;;;;;11.66;57.77051;943.9462;;;;
2019/04/23 04:12:23;;;;;;;9.9;7;;;;;;;11.65;58.00098;943.9302;;;;
2019/04/23 04:14:48;;;;;;;8.3;5.4;;;;;;;11.59;58.09766;943.9063;;;;
2019/04/23 04:17:14;;;;;;;8.4;5.7;;;;;;;11.56;58.3125;943.9059;;;;
2019/04/23 04:19:39;;;;;;;8.6;5;;;;;;;11.56;58.53027;943.9761;;;;
2019/04/23 04:22:05;;;;;;;8.5;5.2;;;;;;;11.48;58.86523;943.9417;;;;
2019/04/23 04:24:30;;;;;;;9.7;5.3;;;;;;;11.47;58.59961;943.9508;;;;
2019/04/23 04:26:55;;;;;;;8.8;4.9;;;;;;;11.4;59.19043;943.8895;;;;
2019/04/23 04:29:20;;;;;;;8.1;5;;;;;;;11.5;58.99609;943.9221;;;;
2019/04/23 04:31:46;;;;;;;8.7;4.8;;;;;;;11.49;59.14453;943.9009;;;;
2019/04/23 04:34:11;;;;;;;12;5.5;;;;;;;11.39;59.41895;943.8992;;;;
2019/04/23 04:36:36;;;;;;;9.7;5.3;;;;;;;11.33;59.89355;943.9114;;;;
2019/04/23 04:39:03;;;;;;;8;5.4;;;;;;;11.38;59.55566;944.0226;;;;
2019/04/23 04:41:27;;;;;;;7.7;5.1;;;;;;;11.35;59.9541;943.9048;;;;
2019/04/23 04:43:52;;;;;;;9.1;5.1;;;;;;;11.43;59.05566;943.9472;;;;
2019/04/23 04:46:18;;;;;;;10.9;5.3;;;;;;;11.53;58.9541;943.9045;;;;
2019/04/23 04:48:43;;;;;;;6.8;5.1;;;;;;;11.54;59.09277;943.8823;;;;
2019/04/23 04:51:08;;;;;;;7.7;5.2;;;;;;;11.43;59.42383;943.7605;;;;
2019/04/23 04:53:33;;;;;;;10.2;5.3;;;;;;;11.37;59.72656;943.8541;;;;
2019/04/23 04:55:58;;;;;;;10.5;5.4;;;;;;;11.4;59.89258;943.8816;;;;
2019/04/23 04:58:23;;;;;;;7.1;5;;;;;;;11.43;59.72363;943.8519;;;;
2019/04/23 05:00:48;;;;;;;9.1;5.3;;;;;;;11.35;59.73633;943.8175;;;;
2019/04/23 05:03:13;;;;;;;9.7;5.7;;;;;;;11.33;60.27539;943.8371;;;;
2019/04/23 05:05:39;;;;;;;8.1;5.6;;;;;;;11.31;60.72266;943.8431;;;;
2019/04/23 05:08:04;;;;;;;8.9;5.4;;;;;;;11.23;60.64258;943.9009;;;;
2019/04/23 05:10:30;;;;;;;9.1;5.5;;;;;;;11.23;60.60645;943.8839;;;;
2019/04/23 05:12:55;;;;;;;6.6;5.4;;;;;;;11.3;60.33984;943.8839;;;;
2019/04/23 05:15:20;;;;;;;12.1;5.2;;;;;;;11.28;60.66113;943.9641;;;;
2019/04/23 05:17:54;;;;;;;9.9;5.5;;;;;;;11.37;60.17676;943.8978;;;;
2019/04/23 05:20:12;;;;;;;10.3;5.5;;;;;;;11.4;59.90332;943.8293;;;;
2019/04/23 05:22:40;;;;;;;9.3;5.3;;;;;;;11.33;60.66699;943.9366;;;;
2019/04/23 05:25:05;;;;;;;6.7;5.7;;;;;;;11.33;60.44824;943.8973;;;;
2019/04/23 05:27:33;;;;;;;8;5.3;;;;;;;11.32;60.71191;943.9205;;;;
2019/04/23 05:30:09;;;;;;;9.7;5.5;;;;;;;11.26;60.90039;943.9707;;;;
2019/04/23 05:32:34;;;;;;;9.1;5.6;;;;;;;11.29;61.27344;943.9631;;;;
2019/04/23 05:34:59;;;;;;;7.2;5.6;;;;;;;11.34;60.38086;944.0051;;;;
2019/04/23 05:37:26;;;;;;;11.4;5.9;;;;;;;11.23;60.7002;943.9221;;;;
2019/04/23 05:39:51;;;;;;;7.5;5.4;;;;;;;11.3;60.98535;943.8969;;;;
2019/04/23 05:42:16;;;;;;;10.1;5.9;;;;;;;11.34;60.62305;943.8753;;;;
2019/04/23 05:44:41;;;;;;;10.9;5.6;;;;;;;11.39;61.02246;943.8602;;;;
2019/04/23 05:47:06;;;;;;;9.8;5.9;;;;;;;11.4;60.91992;943.9288;;;;
2019/04/23 05:49:31;;;;;;;9.9;6.1;;;;;;;11.38;60.70801;943.8792;;;;
2019/04/23 05:51:56;;;;;;;9.4;6;;;;;;;11.39;61.16016;943.9083;;;;
2019/04/23 05:54:21;;;;;;;8.8;5.5;;;;;;;11.56;60.06445;943.8978;;;;
2019/04/23 05:56:47;;;;;;;10.7;5.9;;;;;;;11.59;60.22949;943.8811;;;;
2019/04/23 05:59:12;;;;;;;8.9;5.8;;;;;;;11.52;60.31445;943.9406;;;;
2019/04/23 06:01:37;;;;;;;9.3;5.7;;;;;;;11.61;59.94531;943.9437;;;;
2019/04/23 06:04:02;;;;;;;9.9;6;;;;;;;11.69;59.61035;943.942;;;;
2019/04/23 06:06:27;;;;;;;9.2;6;;;;;;;11.74;59.88184;944.0158;;;;
2019/04/23 06:08:52;;;;;;;7.1;5.5;;;;;;;11.82;59.94043;943.9799;;;;
2019/04/23 06:11:17;;;;;;;10.2;5.7;;;;;;;11.66;60.04297;943.9423;;;;
2019/04/23 06:13:42;;;;;;;9;6.2;;;;;;;11.73;60.27344;944.0167;;;;
2019/04/23 06:16:07;;;;;;;8.6;5.8;;;;;;;11.63;60.44434;944.0363;;;;
2019/04/23 06:18:32;;;;;;;11.2;6.1;;;;;;;11.69;60.19824;944.0863;;;;
2019/04/23 06:21:15;;;;;;;9;5.7;;;;;;;11.78;60.28125;944.0103;;;;
2019/04/23 06:23:54;;;;;;;10.3;5.9;;;;;;;11.83;59.82617;944.0613;;;;
2019/04/23 06:26:41;;;;;;;11.1;5.9;;;;;;;11.83;60.34375;944.0793;;;;
2019/04/23 06:29:13;;;;;;;10.9;6.2;;;;;;;11.94;60.16406;944.1355;;;;
2019/04/23 06:31:41;;;;;;;10.1;5.6;;;;;;;12.09;59.2627;944.1133;;;;
2019/04/23 06:34:06;;;;;;;10.9;6.3;;;;;;;12.18;60.0918;944.0901;;;;
2019/04/23 06:36:34;;;;;;;9.6;5.7;;;;;;;12.26;58.42773;944.0678;;;;
2019/04/23 06:38:59;;;;;;;12;6.1;;;;;;;12.34;58.83203;944.093;;;;
2019/04/23 06:41:24;;;;;;;14.8;6.2;;;;;;;12.46;57.75098;944.0783;;;;
2019/04/23 06:43:53;;;;;;;10.1;6.1;;;;;;;12.41;58.36914;944.0535;;;;
2019/04/23 06:46:14;;;;;;;10.3;6.2;;;;;;;12.5;58.42578;944.0344;;;;
2019/04/23 06:48:39;;;;;;;10.6;6;;;;;;;12.61;57.80469;944.0215;;;;
2019/04/23 06:51:05;;;;;;;12.8;6.4;;;;;;;12.72;57.23047;943.9906;;;;
2019/04/23 06:53:30;;;;;;;9.4;6;;;;;;;12.68;57.6875;944.0034;;;;
2019/04/23 06:55:55;;;;;;;24;7.3;;;;;;;12.65;58.23828;944.0551;;;;
2019/04/23 06:58:21;;;;;;;10.7;6.6;;;;;;;12.87;57.41211;944.0634;;;;
2019/04/23 07:00:46;;;;;;;11.9;6.1;;;;;;;13.07;57.7168;944.1086;;;;
2019/04/23 07:03:11;;;;;;;8.8;5.5;;;;;;;13.09;56.93262;944.0884;;;;
2019/04/23 07:05:36;;;;;;;12.9;6;;;;;;;13.05;57.17969;944.1426;;;;
2019/04/23 07:08:01;;;;;;;10.5;6;;;;;;;13.14;56.9502;944.1092;;;;
2019/04/23 07:10:26;;;;;;;7.6;5.4;;;;;;;13.31;56.24219;944.0012;;;;
2019/04/23 07:12:51;;;;;;;10.9;5.7;;;;;;;13.31;55.66211;944.0714;;;;
2019/04/23 07:15:16;;;;;;;9.8;5.7;;;;;;;13.44;55.87695;944.0675;;;;
2019/04/23 07:17:41;;;;;;;8.8;5.9;;;;;;;13.57;55.83594;944.0694;;;;
2019/04/23 07:20:07;;;;;;;12.1;6.1;;;;;;;13.72;56.27246;944.0764;;;;
2019/04/23 07:22:32;;;;;;;9;5.5;;;;;;;13.81;54.74219;943.9651;;;;
2019/04/23 07:24:57;;;;;;;9.9;5.7;;;;;;;13.83;54.94141;944.0016;;;;
2019/04/23 07:27:22;;;;;;;17.2;7.4;;;;;;;13.96;56.33887;944.0334;;;;
2019/04/23 07:29:47;;;;;;;11.3;6;;;;;;;14;54.38281;944.1155;;;;
2019/04/23 07:32:12;;;;;;;9;5.6;;;;;;;14.05;53.97168;944.048;;;;
2019/04/23 07:34:37;;;;;;;9.4;6;;;;;;;14.19;53.39648;944.0831;;;;
2019/04/23 07:37:02;;;;;;;8.7;5.4;;;;;;;14.14;53.57617;944.115;;;;
2019/04/23 07:39:35;;;;;;;10.6;5.8;;;;;;;14.21;53.45703;944.0809;;;;
2019/04/23 07:42:06;;;;;;;10.5;5.7;;;;;;;14.32;54.14453;944.0795;;;;
2019/04/23 07:51:08;;;;;;;9.1;5.8;;;;;;;14.46;53.87109;944.0095;;;;
2019/04/23 07:53:34;;;;;;;8.4;5.8;;;;;;;14.45;53.38281;944.0014;;;;
2019/04/23 07:55:59;;;;;;;8.3;5.4;;;;;;;14.55;53.15039;943.9849;;;;
2019/04/23 07:58:24;;;;;;;9.3;5.4;;;;;;;14.65;53.31445;943.9981;;;;
2019/04/23 08:00:59;;;;;;;8.5;5;;;;;;;14.72;52.47363;943.9461;;;;
2019/04/23 08:03:27;;;;;;;10.8;5.7;;;;;;;14.79;51.77246;943.9764;;;;
2019/04/23 08:05:53;;;;;;;8.6;5.3;;;;;;;14.87;52.16602;943.9614;;;;
2019/04/23 08:08:18;;;;;;;9.5;5.7;;;;;;;14.9;52.1123;943.9392;;;;
2019/04/23 08:10:43;;;;;;;8.8;5.3;;;;;;;15.01;51.72852;943.8908;;;;
2019/04/23 08:13:20;;;;;;;9.3;5.1;;;;;;;15.09;51.25098;943.9192;;;;
2019/04/23 08:15:47;;;;;;;8.2;5.1;;;;;;;15.26;50.96777;943.9628;;;;
2019/04/23 08:18:13;;;;;;;12.5;5.6;;;;;;;15.32;51.46387;943.9376;;;;
2019/04/23 08:20:43;;;;;;;9.2;5.8;;;;;;;15.42;51.13867;943.9455;;;;
2019/04/23 08:30:18;;;;;;;11.7;5.6;;;;;;;15.82;48.79688;943.9412;;;;
2019/04/23 08:32:44;;;;;;;9.3;5.2;;;;;;;15.85;49.12695;944.0506;;;;
2019/04/23 08:35:10;;;;;;;11.9;5.1;;;;;;;16.02;49.49512;943.954;;;;
2019/04/23 08:37:35;;;;;;;10.2;5.3;;;;;;;16.03;47.83008;943.9083;;;;
2019/04/23 08:40:00;;;;;;;10;4.9;;;;;;;16.03;48.33105;943.9346;;;;
2019/04/23 08:42:25;;;;;;;10.5;5.3;;;;;;;16;48.22363;944.0045;;;;
2019/04/23 08:44:53;;;;;;;11.3;5.1;;;;;;;15.97;48.91895;943.9207;;;;
2019/04/23 08:49:55;;;;;;;11;5.2;;;;;;;16.19;49.15234;943.9313;;;;
2019/04/23 08:52:32;;;;;;;8.2;4.8;;;;;;;16.23;48.31836;943.8855;;;;
2019/04/23 08:54:57;;;;;;;11.3;5;;;;;;;16.25;48.70508;943.9099;;;;
2019/04/23 08:57:22;;;;;;;11.5;5.2;;;;;;;16.29;48.19531;943.8256;;;;
2019/04/23 08:59:47;;;;;;;12.6;4.9;;;;;;;16.36;47.3418;943.8549;;;;
2019/04/23 09:02:13;;;;;;;7.9;5;;;;;;;16.33;47.0459;943.7932;;;;
2019/04/23 09:04:38;;;;;;;10.3;5;;;;;;;16.42;47.28906;943.7683;;;;
2019/04/23 09:07:03;;;;;;;11.8;5.2;;;;;;;16.62;47.54395;943.8201;;;;
2019/04/23 09:09:29;;;;;;;11.2;5;;;;;;;16.74;47.07715;943.7202;;;;
2019/04/23 09:11:54;;;;;;;10.7;4.8;;;;;;;16.89;47.09473;943.7519;;;;
2019/04/23 09:14:19;;;;;;;10.9;5.2;;;;;;;16.95;45.87402;943.788;;;;
2019/04/23 09:16:44;;;;;;;8.4;5.1;;;;;;;17.04;48.2793;943.7701;;;;
2019/04/23 09:19:10;;;;;;;10.4;5.2;;;;;;;17.11;47.44531;943.7607;;;;
2019/04/23 09:21:36;;;;;;;11.5;5.5;;;;;;;17.12;47.25879;943.72;;;;
2019/04/23 09:24:01;;;;;;;11.7;5;;;;;;;17.18;47.19531;943.7601;;;;
2019/04/23 09:26:27;;;;;;;11.5;4.8;;;;;;;17.12;46.57031;943.7109;;;;
2019/04/23 09:28:52;;;;;;;10.5;5.3;;;;;;;17.24;46.00977;943.7608;;;;
2019/04/23 09:31:28;;;;;;;12.9;5.2;;;;;;;17.36;46.56055;943.7224;;;;
2019/04/23 09:33:48;;;;;;;10.1;5.2;;;;;;;17.55;47.44531;943.7388;;;;
2019/04/23 09:36:18;;;;;;;10;5.4;;;;;;;17.38;45.84961;943.807;;;;
2019/04/23 09:38:45;;;;;;;9.2;5.3;;;;;;;17.4;46.51758;943.8434;;;;
2019/04/23 09:42:10;;;;;;;15;5.9;;;;;;;17.48;45.46289;943.8184;;;;
2019/04/23 09:50:20;;;;;;;12;5.2;;;;;;;17.84;45.21777;943.9048;;;;
2019/04/23 09:52:45;;;;;;;11.5;5.2;;;;;;;17.88;44.28613;943.8677;;;;
2019/04/23 09:55:11;;;;;;;13.5;5.1;;;;;;;17.93;44.43262;943.9141;;;;
2019/04/23 09:57:36;;;;;;;9.9;5.5;;;;;;;17.96;45.20801;943.9361;;;;
2019/04/23 11:09:47;;;;;;;14.8;5.5;;;;;;;21.25;36.9248;943.3427;;;;
2019/04/23 11:12:29;;;;;;;9.6;4.2;;;;;;;21.2;37.68652;943.3775;;;;
2019/04/23 11:14:50;;;;;;;10.3;4;;;;;;;20.98;38.89453;943.4244;;;;
2019/04/23 11:17:03;;;;;;;11.3;4.2;;;;;;;21.02;37.27051;943.4634;;;;
2019/04/23 11:19:28;;;;;;;12.6;4.5;;;;;;;21.15;36.43262;943.3898;;;;
2019/04/23 11:21:53;;;;;;;9.1;4;;;;;;;21.43;36.19629;943.4916;;;;
2019/04/23 11:24:19;;;;;;;8.2;3.6;;;;;;;21.46;37.03613;943.4656;;;;
2019/04/23 11:26:44;;;;;;;10.8;4.1;;;;;;;21.49;37.79395;943.4688;;;;
2019/04/23 11:29:09;;;;;;;9.7;4.2;;;;;;;21.32;36.3877;943.3583;;;;
2019/04/23 11:31:35;;;;;;;10;3.9;;;;;;;21.11;36.75977;943.3522;;;;
2019/04/23 11:34:00;;;;;;;9;3.8;;;;;;;20.91;38.00488;943.3689;;;;
2019/04/23 11:36:25;;;;;;;11.6;3.9;;;;;;;20.8;38.30078;943.3683;;;;
2019/04/23 11:38:50;;;;;;;8.8;4;;;;;;;20.63;38.74512;943.4433;;;;
2019/04/23 11:41:15;;;;;;;13.8;4.1;;;;;;;20.47;38.49609;943.4413;;;;
2019/04/23 11:43:40;;;;;;;9.3;3.8;;;;;;;20.4;38.83203;943.452;;;;
2019/04/23 11:46:05;;;;;;;11.1;4;;;;;;;20.37;39.02832;943.4352;;;;
2019/04/23 11:48:32;;;;;;;11;3.9;;;;;;;20.47;38.96777;943.5115;;;;
2019/04/23 11:50:58;;;;;;;10.3;3.8;;;;;;;20.45;40.41309;943.4661;;;;
2019/04/23 11:53:23;;;;;;;10.7;3.6;;;;;;;20.44;37.81055;943.4911;;;;
2019/04/23 11:55:48;;;;;;;11;3.6;;;;;;;20.51;38.58203;943.5148;;;;
2019/04/23 11:58:13;;;;;;;12.5;4;;;;;;;20.37;37.32129;943.4484;;;;
2019/04/23 12:04:36;;;;;;;9.8;3.3;;;;;;;20.74;38.35449;943.5287;;;;
2019/04/23 12:07:03;;;;;;;10.2;3.7;;;;;;;20.8;38.99609;943.5854;;;;
2019/04/23 12:09:33;;;;;;;10.6;3.5;;;;;;;20.79;38.10059;943.6305;;;;
2019/04/23 12:11:46;;;;;;;10.9;3.4;;;;;;;20.74;38.38965;943.6479;;;;
2019/04/23 12:14:15;;;;;;;13.8;3.8;;;;;;;20.78;37.32129;943.6858;;;;
2019/04/23 12:16:38;;;;;;;10.2;3.6;;;;;;;20.89;37.13086;943.5977;;;;
2019/04/23 12:19:01;;;;;;;7.4;3.5;;;;;;;20.99;37.81055;943.6259;;;;
2019/04/23 12:21:28;;;;;;;8.4;3.8;;;;;;;20.98;39.22363;943.663;;;;
2019/04/23 12:23:53;;;;;;;9.5;3.4;;;;;;;21.07;40.39941;943.7109;;;;
2019/04/23 12:26:18;;;;;;;11.1;4;;;;;;;21.1;40.30762;943.7061;;;;
2019/04/23 12:28:43;;;;;;;8.2;3.9;;;;;;;21;39.74512;943.7045;;;;
2019/04/23 12:31:09;;;;;;;10.1;4.1;;;;;;;21.06;39.11328;943.7122;;;;
2019/04/23 12:33:34;;;;;;;11;4.6;;;;;;;20.98;38.50488;943.7026;;;;
2019/04/23 12:36:08;;;;;;;9.8;4.2;;;;;;;20.86;39.54395;943.7297;;;;
2019/04/23 12:38:24;;;;;;;10.8;4.1;;;;;;;20.9;39.85449;943.7197;;;;
2019/04/23 12:40:49;;;;;;;10.4;4.4;;;;;;;20.74;39.29688;943.652;;;;
2019/04/23 12:43:14;;;;;;;8.8;3.7;;;;;;;20.86;38.2832;943.6859;;;;
2019/04/23 12:45:40;;;;;;;10.2;3.8;;;;;;;20.93;39.98633;943.5864;;;;
2019/04/23 12:48:05;;;;;;;8.2;4.2;;;;;;;20.88;38.42578;943.6255;;;;
2019/04/23 12:50:30;;;;;;;13.2;4.1;;;;;;;21.08;39.13867;943.6433;;;;
2019/04/23 12:52:55;;;;;;;8.4;3.5;;;;;;;21.22;37.58301;943.6219;;;;
2019/04/23 12:55:20;;;;;;;10.6;3.9;;;;;;;21.45;38.32227;943.5676;;;;
2019/04/23 12:57:45;;;;;;;9.6;3.6;;;;;;;21.63;37.45215;943.5478;;;;
2019/04/23 13:00:11;;;;;;;11.1;3.8;;;;;;;21.84;38.56836;943.5854;;;;
2019/04/23 13:02:35;;;;;;;11.4;3.6;;;;;;;22.17;37.08496;943.5595;;;;
2019/04/23 13:05:01;;;;;;;9.9;3.7;;;;;;;22.18;36.22266;943.5105;;;;
2019/04/23 13:07:27;;;;;;;10.2;3.5;;;;;;;22.25;35.60156;943.5298;;;;
2019/04/23 13:09:52;;;;;;;11;3.4;;;;;;;22.38;36.20313;943.4957;;;;
2019/04/23 13:12:17;;;;;;;8.6;3.3;;;;;;;22.71;37.50781;943.5884;;;;
2019/04/23 13:14:42;;;;;;;9;3.1;;;;;;;22.76;36.48242;943.5837;;;;
2019/04/23 13:17:07;;;;;;;10.2;3.2;;;;;;;22.9;34.44629;943.5438;;;;
2019/04/23 13:19:40;;;;;;;7.9;3.2;;;;;;;22.86;34.77441;943.5422;;;;
2019/04/23 13:22:03;;;;;;;9.1;3.4;;;;;;;22.98;34.21582;943.42;;;;
2019/04/23 13:24:37;;;;;;;11.1;3.8;;;;;;;23.29;33.9082;943.4306;;;;
2019/04/23 13:26:54;;;;;;;10.6;3.7;;;;;;;23.39;34.56738;943.3262;;;;
2019/04/23 13:29:19;;;;;;;11.9;3.4;;;;;;;23.5;35.23926;943.3258;;;;
2019/04/23 13:31:53;;;;;;;7.3;3.2;;;;;;;23.78;33.57715;943.2922;;;;
2019/04/23 13:34:18;;;;;;;10.1;3.2;;;;;;;24.17;35.35156;943.2756;;;;
2019/04/23 13:36:43;;;;;;;9;3.2;;;;;;;24.2;34.20313;943.2704;;;;
2019/04/23 13:39:15;;;;;;;11;3.5;;;;;;;24.34;32.48047;943.2681;;;;
2019/04/23 13:41:40;;;;;;;9.2;3.2;;;;;;;24.41;33.1377;943.2617;;;;
2019/04/23 13:44:07;;;;;;;12.7;3.7;;;;;;;24.67;32.32422;943.2136;;;;
2019/04/23 13:46:32;;;;;;;9.5;3.3;;;;;;;24.74;31.71191;943.1789;;;;
2019/04/23 13:48:59;;;;;;;10.3;3.1;;;;;;;24.61;31.08496;943.1561;;;;
2019/04/23 13:51:24;;;;;;;6.8;2.8;;;;;;;24.77;33.1416;943.1152;;;;
2019/04/23 13:53:49;;;;;;;6.9;2.7;;;;;;;24.7;32.32813;943.1269;;;;
2019/04/23 13:56:14;;;;;;;8;2.9;;;;;;;24.48;32.65527;943.0639;;;;
2019/04/23 13:58:43;;;;;;;8.5;2.8;;;;;;;23.97;34.66016;943.0468;;;;
2019/04/23 14:01:05;;;;;;;9;3.6;;;;;;;23.53;33.5;943.0891;;;;
2019/04/23 14:03:40;;;;;;;14.2;4.7;;;;;;;23.31;32.96191;943.0504;;;;
2019/04/23 14:06:00;;;;;;;10.3;3.4;;;;;;;23.14;33.82617;943.0303;;;;
2019/04/23 14:08:25;;;;;;;8.5;3.3;;;;;;;23.16;33.45996;943.0532;;;;
2019/04/23 14:10:50;;;;;;;6.9;3;;;;;;;23.14;35.11719;943.0875;;;;
2019/04/23 14:13:15;;;;;;;7.8;2.7;;;;;;;23.07;33.87891;943.1124;;;;
2019/04/23 14:15:40;;;;;;;10.7;3.1;;;;;;;23.14;35.22363;943.1102;;;;
2019/04/23 14:18:05;;;;;;;10.5;2.9;;;;;;;22.97;34.60645;943.1155;;;;
2019/04/23 14:20:31;;;;;;;8.4;2.7;;;;;;;23.11;33.7168;943.0833;;;;
2019/04/23 14:22:56;;;;;;;11.4;2.8;;;;;;;23.21;33.2627;943.067;;;;
2019/04/23 14:25:21;;;;;;;10.7;3.1;;;;;;;23.17;33.83887;943.137;;;;
2019/04/23 14:27:51;;;;;;;7.8;3.2;;;;;;;23.16;34.40723;943.1197;;;;
2019/04/23 14:30:16;;;;;;;11.1;3.4;;;;;;;22.75;35.2627;943.218;;;;
2019/04/23 14:32:42;;;;;;;6.1;3.3;;;;;;;22.9;34.83691;943.1091;;;;
2019/04/23 14:35:07;;;;;;;9.5;3.1;;;;;;;23.19;34.93066;943.084;;;;
2019/04/23 14:37:32;;;;;;;7.3;2.7;;;;;;;23.44;35.05664;943.0832;;;;
2019/04/23 14:39:57;;;;;;;9.6;3.1;;;;;;;23.61;33.95605;943.0591;;;;
2019/04/23 14:42:22;;;;;;;10;3.3;;;;;;;23.77;34.34766;943.0936;;;;
2019/04/23 14:44:50;;;;;;;7.6;2.8;;;;;;;23.52;34.57715;943.0865;;;;
2019/04/23 14:47:13;;;;;;;7;2.8;;;;;;;23.62;33.49316;943.0178;;;;
2019/04/23 14:49:47;;;;;;;9.4;3;;;;;;;23.71;33.69043;943.016;;;;
2019/04/23 14:52:11;;;;;;;7.7;3.2;;;;;;;23.54;33.79688;942.9334;;;;
2019/04/23 14:54:37;;;;;;;7.9;2.9;;;;;;;23.61;33.23242;942.9886;;;;
2019/04/23 14:57:01;;;;;;;6.8;3;;;;;;;23.56;33.03906;943.0095;;;;
2019/04/23 14:59:26;;;;;;;9.1;2.8;;;;;;;23.38;33.96191;943.0748;;;;
2019/04/23 15:01:51;;;;;;;4.7;2.5;;;;;;;23.21;34.15137;943.0405;;;;
2019/04/23 15:04:16;;;;;;;7;2.9;;;;;;;23.31;32.9375;943.0198;;;;
2019/04/23 15:06:41;;;;;;;8.2;3;;;;;;;23.19;34.85938;943.0095;;;;
2019/04/23 15:09:10;;;;;;;8.8;2.9;;;;;;;23.18;34.92969;943.0239;;;;
2019/04/23 15:11:32;;;;;;;8;2.7;;;;;;;22.98;35.43457;943.093;;;;
2019/04/23 15:13:59;;;;;;;9;2.5;;;;;;;22.87;36.51465;943.0662;;;;
2019/04/23 15:16:42;;;;;;;8.1;2.5;;;;;;;22.67;35.08008;943.0845;;;;
2019/04/23 15:21:32;;;;;;;10.3;2.5;;;;;;;22.3;34.8252;943.0963;;;;
2019/04/23 15:24:07;;;;;;;6.3;2.3;;;;;;;22.14;35.13184;943.0739;;;;
2019/04/23 15:26:45;;;;;;;6.9;2.2;;;;;;;22.16;35.8418;943.0969;;;;
2019/04/23 15:29:11;;;;;;;4.6;2.4;;;;;;;22.03;35.99707;943.0861;;;;
2019/04/23 15:31:48;;;;;;;6;2.4;;;;;;;22.03;36.26855;943.0953;;;;
2019/04/23 15:34:24;;;;;;;7.2;2.2;;;;;;;22.08;36.08398;943.1147;;;;
2019/04/23 15:36:56;;;;;;;4.9;1.9;;;;;;;22.09;36.73438;943.1838;;;;
2019/04/23 15:39:38;;;;;;;8.2;2.5;;;;;;;22.03;36.25684;943.2015;;;;
2019/04/23 15:42:13;;;;;;;5.1;2.3;;;;;;;21.94;35.87207;943.1898;;;;
2019/04/23 15:44:42;;;;;;;5.5;2.2;;;;;;;21.96;36.75879;943.1822;;;;
2019/04/23 15:47:25;;;;;;;8.4;2.1;;;;;;;21.9;36.74219;943.1439;;;;
2019/04/23 15:49:50;;;;;;;6.9;2;;;;;;;21.79;37.14746;943.213;;;;
2019/04/23 15:52:15;;;;;;;12.6;2.4;;;;;;;21.65;36.14355;943.2043;;;;
2019/04/23 15:54:47;;;;;;;6.5;1.9;;;;;;;21.55;35.95898;943.2202;;;;
2019/04/23 15:57:25;;;;;;;4.8;1.8;;;;;;;21.47;36.55371;943.2415;;;;
2019/04/23 15:59:51;;;;;;;5.8;1.8;;;;;;;21.36;37.50098;943.1976;;;;